Time;durP1;ratioP1;P1;durP2;ratioP2;P2;SDS_P1;SDS_P2;PMS_P1;PMS_P2;Temp;Humidity;BMP_temperature;BMP_pressure;BME280_temperature;BME280_humidity;BME280_pressure;Samples;Min_cycle;Max_cycle;Signal;HPM_P1;HPM_P2
2024/03/24 00:01:20;;;;;;;2.38;1.80;;;;;;;;;;6244385;22;20191;-48
2024/03/24 00:03:48;;;;;;;2.00;1.80;;;;;;;;;;6243574;22;20638;-52
2024/03/24 00:06:14;;;;;;;1.80;1.60;;;;;;;;;;6244449;22;20169;-51
2024/03/24 00:08:41;;;;;;;2.75;1.80;;;;;;;;;;6244015;22;20197;-49
2024/03/24 00:11:08;;;;;;;1.65;1.52;;;;;;;;;;6244275;22;20529;-48
2024/03/24 00:13:35;;;;;;;2.40;1.88;;;;;;;;;;6243981;22;20695;-50
2024/03/24 00:16:05;;;;;;;1.55;1.25;;;;;;;;;;6243903;22;20529;-48
2024/03/24 00:18:33;;;;;;;1.70;1.40;;;;;;;;;;6243622;22;20204;-51
2024/03/24 00:20:59;;;;;;;2.20;1.73;;;;;;;;;;6244003;22;20495;-51
2024/03/24 00:23:27;;;;;;;1.50;1.40;;;;;;;;;;6243481;22;20686;-48
2024/03/24 00:25:53;;;;;;;1.85;1.52;;;;;;;;;;6244161;22;20173;-49
2024/03/24 00:28:21;;;;;;;2.45;1.70;;;;;;;;;;6243708;22;20200;-48
2024/03/24 00:30:47;;;;;;;1.63;1.52;;;;;;;;;;6243737;22;20177;-50
2024/03/24 00:33:16;;;;;;;1.60;1.50;;;;;;;;;;6243554;22;20174;-50
2024/03/24 00:35:42;;;;;;;1.70;1.60;;;;;;;;;;6243795;23;20256;-50
2024/03/24 00:38:10;;;;;;;1.35;1.25;;;;;;;;;;6243313;22;20204;-50
2024/03/24 00:40:36;;;;;;;1.92;1.67;;;;;;;;;;6243521;22;20630;-48
2024/03/24 00:43:04;;;;;;;1.73;1.23;;;;;;;;;;6243101;22;20173;-48
2024/03/24 00:45:30;;;;;;;3.13;1.77;;;;;;;;;;6243579;22;20177;-47
2024/03/24 00:47:58;;;;;;;1.95;1.30;;;;;;;;;;6243125;22;20193;-50
2024/03/24 00:50:25;;;;;;;2.75;2.05;;;;;;;;;;6243377;22;20173;-48
2024/03/24 00:52:53;;;;;;;1.58;1.45;;;;;;;;;;6243269;22;20180;-48
2024/03/24 00:55:19;;;;;;;1.73;1.50;;;;;;;;;;6243608;22;20184;-53
2024/03/24 00:57:47;;;;;;;1.50;1.40;;;;;;;;;;6243258;22;20207;-53
2024/03/24 01:00:14;;;;;;;1.20;1.20;;;;;;;;;;6244065;22;20179;-53
2024/03/24 01:02:41;;;;;;;1.92;1.58;;;;;;;;;;6243390;22;20204;-50
2024/03/24 01:05:09;;;;;;;1.50;1.40;;;;;;;;;;6243522;22;20173;-52
2024/03/24 01:07:38;;;;;;;1.40;1.30;;;;;;;;;;6243917;23;20537;-49
2024/03/24 01:10:05;;;;;;;1.33;1.23;;;;;;;;;;6243273;22;20251;-48
2024/03/24 01:12:33;;;;;;;1.38;1.20;;;;;;;;;;6243118;22;20173;-49
2024/03/24 01:14:59;;;;;;;1.40;1.08;;;;;;;;;;6243913;22;20629;-48
2024/03/24 01:17:26;;;;;;;0.90;0.90;;;;;;;;;;6243151;22;20570;-48
2024/03/24 01:19:53;;;;;;;1.23;1.17;;;;;;;;;;6243128;22;20247;-53
2024/03/24 01:22:21;;;;;;;1.00;1.00;;;;;;;;;;6243318;22;20572;-51
2024/03/24 01:24:48;;;;;;;1.38;1.27;;;;;;;;;;6243082;22;20546;-50
2024/03/24 01:27:16;;;;;;;1.17;1.10;;;;;;;;;;6243379;22;20497;-47
2024/03/24 01:29:42;;;;;;;1.42;1.33;;;;;;;;;;6243335;22;20263;-53
2024/03/24 01:32:10;;;;;;;1.80;1.40;;;;;;;;;;6242602;22;20180;-50
2024/03/24 01:34:36;;;;;;;2.80;1.20;;;;;;;;;;6243231;22;20203;-49
2024/03/24 01:37:04;;;;;;;1.50;1.40;;;;;;;;;;6242852;22;20225;-51
2024/03/24 01:39:30;;;;;;;1.10;1.00;;;;;;;;;;6243394;22;20177;-48
2024/03/24 01:42:00;;;;;;;1.73;1.63;;;;;;;;;;6242878;22;20181;-49
2024/03/24 01:44:27;;;;;;;1.17;1.17;;;;;;;;;;6243235;22;20176;-49
2024/03/24 01:46:54;;;;;;;1.45;1.35;;;;;;;;;;6242709;22;20169;-53
2024/03/24 01:49:21;;;;;;;1.58;1.13;;;;;;;;;;6243228;22;20700;-48
2024/03/24 01:51:48;;;;;;;1.50;1.33;;;;;;;;;;6243630;23;20231;-48
2024/03/24 01:54:16;;;;;;;1.17;1.08;;;;;;;;;;6244717;22;20642;-48
2024/03/24 01:56:44;;;;;;;1.60;1.50;;;;;;;;;;6245347;22;20200;-48
2024/03/24 01:59:13;;;;;;;1.30;1.20;;;;;;;;;;6245451;22;20193;-48
2024/03/24 02:01:41;;;;;;;1.42;1.33;;;;;;;;;;6245537;22;20174;-48
2024/03/24 02:04:08;;;;;;;1.42;1.33;;;;;;;;;;6245565;22;20215;-48
2024/03/24 02:06:37;;;;;;;1.40;1.30;;;;;;;;;;6245594;22;20184;-47
2024/03/24 02:09:03;;;;;;;1.10;1.10;;;;;;;;;;6245881;22;20594;-47
2024/03/24 02:11:31;;;;;;;1.63;1.20;;;;;;;;;;6245346;22;20719;-47
2024/03/24 02:13:58;;;;;;;1.40;1.35;;;;;;;;;;6245051;22;20173;-47
2024/03/24 02:16:27;;;;;;;1.38;1.27;;;;;;;;;;6245634;22;20173;-51
2024/03/24 02:18:54;;;;;;;1.75;1.20;;;;;;;;;;6245729;22;20279;-49
2024/03/24 02:21:21;;;;;;;1.52;1.42;;;;;;;;;;6245507;22;20208;-47
2024/03/24 02:23:49;;;;;;;1.20;1.10;;;;;;;;;;6244881;22;20173;-49
2024/03/24 02:26:16;;;;;;;1.40;1.25;;;;;;;;;;6245082;22;20180;-48
2024/03/24 02:28:43;;;;;;;1.70;1.60;;;;;;;;;;6245359;22;20189;-46
2024/03/24 02:31:11;;;;;;;1.60;1.50;;;;;;;;;;6244854;22;20177;-46
2024/03/24 02:33:38;;;;;;;1.58;1.20;;;;;;;;;;6245398;23;20173;-49
2024/03/24 02:36:06;;;;;;;1.48;1.38;;;;;;;;;;6244845;22;20173;-46
2024/03/24 02:38:33;;;;;;;1.30;1.20;;;;;;;;;;6244760;22;20211;-47
2024/03/24 02:41:01;;;;;;;1.05;1.05;;;;;;;;;;6244675;22;20173;-48
2024/03/24 02:43:28;;;;;;;1.13;1.13;;;;;;;;;;6244788;22;20256;-49
2024/03/24 02:45:58;;;;;;;1.35;1.27;;;;;;;;;;6245203;22;20706;-48
2024/03/24 02:48:25;;;;;;;1.48;1.38;;;;;;;;;;6245240;22;20203;-49
2024/03/24 02:50:53;;;;;;;1.23;1.13;;;;;;;;;;6244716;22;20180;-47
2024/03/24 02:53:19;;;;;;;1.05;1.00;;;;;;;;;;6245007;22;20661;-50
2024/03/24 02:55:47;;;;;;;1.10;1.10;;;;;;;;;;6245172;22;20174;-47
2024/03/24 02:58:16;;;;;;;1.73;1.63;;;;;;;;;;6245293;23;20201;-47
2024/03/24 03:00:44;;;;;;;4.35;1.45;;;;;;;;;;6244370;22;20719;-47
2024/03/24 03:03:10;;;;;;;1.08;1.08;;;;;;;;;;6244602;22;20753;-49
2024/03/24 03:05:38;;;;;;;0.90;0.90;;;;;;;;;;6244622;22;20604;-48
2024/03/24 03:08:06;;;;;;;1.27;1.17;;;;;;;;;;6244459;22;20190;-47
2024/03/24 03:10:34;;;;;;;1.17;1.17;;;;;;;;;;6245049;22;20181;-50
2024/03/24 03:13:00;;;;;;;1.25;1.15;;;;;;;;;;6244557;23;20173;-47
2024/03/24 03:15:29;;;;;;;1.00;1.00;;;;;;;;;;6244573;22;20199;-47
2024/03/24 03:17:56;;;;;;;1.33;1.23;;;;;;;;;;6244089;22;20207;-48
2024/03/24 03:20:24;;;;;;;1.25;1.10;;;;;;;;;;6244912;22;20634;-48
2024/03/24 03:22:50;;;;;;;1.17;1.00;;;;;;;;;;6244044;22;20211;-49
2024/03/24 03:25:18;;;;;;;1.45;1.20;;;;;;;;;;6244354;22;20179;-47
2024/03/24 03:27:44;;;;;;;1.05;0.95;;;;;;;;;;6244327;22;20189;-48
2024/03/24 03:30:12;;;;;;;1.52;1.42;;;;;;;;;;6244078;22;20231;-49
2024/03/24 03:32:40;;;;;;;2.40;1.00;;;;;;;;;;6244508;23;20184;-49
2024/03/24 03:35:08;;;;;;;1.13;1.05;;;;;;;;;;6244098;22;20177;-48
2024/03/24 03:37:35;;;;;;;1.10;1.10;;;;;;;;;;6244672;23;20208;-46
2024/03/24 03:40:02;;;;;;;1.35;1.25;;;;;;;;;;6244623;22;20634;-48
2024/03/24 03:42:29;;;;;;;1.40;1.30;;;;;;;;;;6244087;22;20180;-48
2024/03/24 03:44:56;;;;;;;1.48;1.17;;;;;;;;;;6244079;22;20179;-50
2024/03/24 03:47:26;;;;;;;1.75;1.65;;;;;;;;;;6244145;22;20517;-48
2024/03/24 03:49:55;;;;;;;1.30;1.20;;;;;;;;;;6244290;23;20177;-47
2024/03/24 03:52:25;;;;;;;1.13;0.90;;;;;;;;;;6244512;22;20180;-47
2024/03/24 03:54:56;;;;;;;1.63;1.33;;;;;;;;;;6244352;23;20267;-47
2024/03/24 03:57:23;;;;;;;1.17;1.17;;;;;;;;;;6244697;23;20654;-48
2024/03/24 03:59:51;;;;;;;1.48;1.38;;;;;;;;;;6242923;22;20263;-50
2024/03/24 04:02:18;;;;;;;1.08;1.02;;;;;;;;;;6243814;22;20248;-49
2024/03/24 04:04:45;;;;;;;1.40;1.30;;;;;;;;;;6243820;22;20208;-47
2024/03/24 04:07:13;;;;;;;0.80;0.80;;;;;;;;;;6243789;22;20795;-47
2024/03/24 04:09:40;;;;;;;1.23;1.15;;;;;;;;;;6243987;22;20569;-48
2024/03/24 04:12:07;;;;;;;1.40;1.30;;;;;;;;;;6243375;22;20179;-48
2024/03/24 04:14:35;;;;;;;1.30;1.20;;;;;;;;;;6243706;22;20177;-51
2024/03/24 04:17:01;;;;;;;1.60;1.40;;;;;;;;;;6243597;22;20597;-48
2024/03/24 04:19:29;;;;;;;2.40;1.23;;;;;;;;;;6243363;22;20207;-49
2024/03/24 04:21:55;;;;;;;1.48;1.38;;;;;;;;;;6243636;22;20173;-47
2024/03/24 04:24:24;;;;;;;1.75;1.50;;;;;;;;;;6244243;22;20173;-48
2024/03/24 04:26:51;;;;;;;2.42;1.67;;;;;;;;;;6244019;22;20191;-50
2024/03/24 04:29:18;;;;;;;2.03;1.73;;;;;;;;;;6243708;22;20193;-47
2024/03/24 04:31:44;;;;;;;1.15;1.15;;;;;;;;;;6243943;22;20185;-48
2024/03/24 04:34:12;;;;;;;1.25;1.15;;;;;;;;;;6243569;22;20193;-49
2024/03/24 04:36:38;;;;;;;1.73;1.60;;;;;;;;;;6244367;23;20256;-51
2024/03/24 04:39:06;;;;;;;4.22;3.17;;;;;;;;;;6243278;22;20204;-51
2024/03/24 04:41:34;;;;;;;1.25;1.17;;;;;;;;;;6243656;22;20180;-49
2024/03/24 04:44:02;;;;;;;2.83;2.63;;;;;;;;;;6243676;22;20177;-48
2024/03/24 04:46:29;;;;;;;1.60;1.50;;;;;;;;;;6243987;22;20545;-49
2024/03/24 04:48:57;;;;;;;1.30;1.20;;;;;;;;;;6243771;22;20189;-50
2024/03/24 04:51:23;;;;;;;1.38;1.27;;;;;;;;;;6244111;22;20173;-47
2024/03/24 04:53:51;;;;;;;1.27;1.20;;;;;;;;;;6243003;22;20185;-47
2024/03/24 04:56:17;;;;;;;1.63;1.50;;;;;;;;;;6240722;22;20252;-47
2024/03/24 04:58:46;;;;;;;1.50;1.40;;;;;;;;;;6243430;22;20210;-49
2024/03/24 05:01:12;;;;;;;2.10;1.90;;;;;;;;;;6243721;22;20180;-47
2024/03/24 05:03:40;;;;;;;1.52;1.42;;;;;;;;;;6243425;22;20248;-47
2024/03/24 05:06:07;;;;;;;3.90;2.45;;;;;;;;;;6243663;22;20169;-47
2024/03/24 05:08:36;;;;;;;1.38;1.27;;;;;;;;;;6242815;22;20662;-49
2024/03/24 05:11:02;;;;;;;1.92;1.83;;;;;;;;;;6243499;23;20208;-47
2024/03/24 05:13:30;;;;;;;1.95;1.45;;;;;;;;;;6243569;22;20184;-48
2024/03/24 05:15:58;;;;;;;1.40;1.30;;;;;;;;;;6243460;22;20173;-47
2024/03/24 05:18:25;;;;;;;1.52;1.30;;;;;;;;;;6242568;22;20201;-48
2024/03/24 05:20:51;;;;;;;1.70;1.60;;;;;;;;;;6243195;22;20648;-50
2024/03/24 05:23:19;;;;;;;1.42;1.30;;;;;;;;;;6242470;22;20180;-48
2024/03/24 05:25:48;;;;;;;1.67;1.58;;;;;;;;;;6243558;22;20208;-50
2024/03/24 05:28:16;;;;;;;2.90;1.70;;;;;;;;;;6243771;22;20212;-49
2024/03/24 05:30:42;;;;;;;1.55;1.45;;;;;;;;;;6243705;22;20622;-50
2024/03/24 05:33:11;;;;;;;1.63;1.52;;;;;;;;;;6243676;22;20807;-49
2024/03/24 05:35:38;;;;;;;1.77;1.63;;;;;;;;;;6244240;22;20173;-48
2024/03/24 05:38:05;;;;;;;1.33;1.23;;;;;;;;;;6243760;22;20192;-47
2024/03/24 05:40:32;;;;;;;1.10;1.10;;;;;;;;;;6244521;22;20292;-47
2024/03/24 05:42:59;;;;;;;2.30;1.83;;;;;;;;;;6244258;22;20173;-47
2024/03/24 05:45:25;;;;;;;1.42;1.33;;;;;;;;;;6244610;22;20173;-46
2024/03/24 05:47:53;;;;;;;1.38;1.27;;;;;;;;;;6244127;22;20208;-47
2024/03/24 05:50:21;;;;;;;1.50;1.40;;;;;;;;;;6245002;22;20169;-46
2024/03/24 05:52:48;;;;;;;2.50;1.35;;;;;;;;;;6243860;22;20256;-49
2024/03/24 05:55:15;;;;;;;2.08;1.88;;;;;;;;;;6243772;22;20264;-48
2024/03/24 05:57:43;;;;;;;1.45;1.35;;;;;;;;;;6244205;22;20203;-47
2024/03/24 06:00:11;;;;;;;1.25;1.15;;;;;;;;;;6244204;22;20201;-49
2024/03/24 06:02:39;;;;;;;2.20;2.00;;;;;;;;;;6243755;22;20173;-46
2024/03/24 06:05:07;;;;;;;1.77;1.67;;;;;;;;;;6243838;22;20177;-49
2024/03/24 06:07:35;;;;;;;1.42;1.33;;;;;;;;;;6244933;23;20197;-47
2024/03/24 06:10:03;;;;;;;1.23;1.23;;;;;;;;;;6244140;22;20256;-48
2024/03/24 06:12:31;;;;;;;3.47;1.67;;;;;;;;;;6243455;22;20544;-48
2024/03/24 06:14:57;;;;;;;1.73;1.63;;;;;;;;;;6243626;22;20217;-47
2024/03/24 06:17:24;;;;;;;2.00;1.80;;;;;;;;;;6243946;22;20204;-50
2024/03/24 06:19:51;;;;;;;2.95;1.98;;;;;;;;;;6243834;22;20509;-48
2024/03/24 06:22:18;;;;;;;1.45;1.35;;;;;;;;;;6244059;22;20181;-47
2024/03/24 06:24:46;;;;;;;3.70;1.42;;;;;;;;;;6243686;22;20177;-46
2024/03/24 06:27:14;;;;;;;1.65;1.48;;;;;;;;;;6242975;22;20256;-50
2024/03/24 06:29:40;;;;;;;1.55;1.45;;;;;;;;;;6243570;22;20176;-47
2024/03/24 06:32:08;;;;;;;1.92;1.75;;;;;;;;;;6243764;22;20185;-48
2024/03/24 06:34:35;;;;;;;1.40;1.30;;;;;;;;;;6244222;22;20275;-46
2024/03/24 06:37:02;;;;;;;1.60;1.50;;;;;;;;;;6243851;22;20184;-46
2024/03/24 06:39:29;;;;;;;1.38;1.27;;;;;;;;;;6243623;22;20224;-49
2024/03/24 06:42:03;;;;;;;3.63;1.20;;;;;;;;;;6245150;22;20177;-46
2024/03/24 06:44:35;;;;;;;1.50;1.27;;;;;;;;;;6245740;23;20165;-47
2024/03/24 06:47:03;;;;;;;1.30;1.20;;;;;;;;;;6245487;23;20160;-48
2024/03/24 06:49:29;;;;;;;2.58;1.20;;;;;;;;;;6245908;22;20251;-48
2024/03/24 06:51:57;;;;;;;0.90;0.90;;;;;;;;;;6244641;22;20184;-48
2024/03/24 06:54:23;;;;;;;1.30;1.20;;;;;;;;;;6245332;22;20185;-48
2024/03/24 06:56:51;;;;;;;1.85;1.73;;;;;;;;;;6244585;22;20173;-48
2024/03/24 06:59:19;;;;;;;1.42;1.30;;;;;;;;;;6245578;22;20282;-47
2024/03/24 07:01:46;;;;;;;1.27;1.20;;;;;;;;;;6244981;22;20503;-48
2024/03/24 07:04:13;;;;;;;1.20;1.10;;;;;;;;;;6244908;22;20177;-49
2024/03/24 07:06:40;;;;;;;2.30;1.42;;;;;;;;;;6244226;22;20173;-47
2024/03/24 07:09:07;;;;;;;1.23;1.13;;;;;;;;;;6245474;22;20189;-46
2024/03/24 07:11:34;;;;;;;1.30;1.30;;;;;;;;;;6245029;22;20199;-47
2024/03/24 07:14:01;;;;;;;1.30;1.20;;;;;;;;;;6245112;22;20701;-49
2024/03/24 07:16:29;;;;;;;1.00;1.00;;;;;;;;;;6244807;22;20205;-46
2024/03/24 07:18:56;;;;;;;1.55;1.30;;;;;;;;;;6245292;22;20192;-48
2024/03/24 07:21:23;;;;;;;1.30;1.20;;;;;;;;;;6244503;22;20173;-50
2024/03/24 07:23:51;;;;;;;1.40;1.30;;;;;;;;;;6244514;22;20515;-47
2024/03/24 07:26:18;;;;;;;1.52;1.30;;;;;;;;;;6245399;22;20178;-46
2024/03/24 07:28:45;;;;;;;1.15;1.13;;;;;;;;;;6244907;22;20700;-47
2024/03/24 07:31:12;;;;;;;1.17;1.10;;;;;;;;;;6244733;22;20259;-47
2024/03/24 07:33:40;;;;;;;1.00;1.00;;;;;;;;;;6244851;22;20646;-47
2024/03/24 07:36:08;;;;;;;1.00;1.00;;;;;;;;;;6244643;22;20524;-46
2024/03/24 07:38:35;;;;;;;1.13;1.05;;;;;;;;;;6245357;23;20571;-46
2024/03/24 07:41:03;;;;;;;1.10;0.98;;;;;;;;;;6245346;23;20197;-46
2024/03/24 07:43:29;;;;;;;1.02;1.02;;;;;;;;;;6244520;22;20183;-48
2024/03/24 07:45:56;;;;;;;1.10;1.02;;;;;;;;;;6244691;22;20173;-47
2024/03/24 07:48:23;;;;;;;1.92;1.27;;;;;;;;;;6244421;22;20223;-49
2024/03/24 07:50:52;;;;;;;1.40;1.08;;;;;;;;;;6244771;22;20205;-49
2024/03/24 07:53:18;;;;;;;1.00;0.95;;;;;;;;;;6244934;22;20263;-46
2024/03/24 07:55:46;;;;;;;1.00;1.00;;;;;;;;;;6244558;22;20695;-49
2024/03/24 07:58:12;;;;;;;0.95;0.85;;;;;;;;;;6244437;22;20192;-46
2024/03/24 08:00:40;;;;;;;1.05;1.05;;;;;;;;;;6244393;22;20204;-49
2024/03/24 08:03:06;;;;;;;0.70;0.70;;;;;;;;;;6244169;22;20173;-49
2024/03/24 08:05:34;;;;;;;0.60;0.60;;;;;;;;;;6244553;22;20173;-46
2024/03/24 08:08:02;;;;;;;0.63;0.63;;;;;;;;;;6244766;22;20197;-46
2024/03/24 08:10:30;;;;;;;0.68;0.68;;;;;;;;;;6244556;22;20208;-48
2024/03/24 08:12:56;;;;;;;0.63;0.63;;;;;;;;;;6244392;22;20173;-47
2024/03/24 08:15:24;;;;;;;1.02;0.80;;;;;;;;;;6244443;22;20235;-48
2024/03/24 08:17:50;;;;;;;0.40;0.40;;;;;;;;;;6244757;22;20204;-46
2024/03/24 08:20:18;;;;;;;0.60;0.60;;;;;;;;;;6245003;22;20197;-46
2024/03/24 08:22:44;;;;;;;0.63;0.63;;;;;;;;;;6244431;22;20177;-52
2024/03/24 08:25:13;;;;;;;0.63;0.63;;;;;;;;;;6243702;22;20185;-46
2024/03/24 08:27:39;;;;;;;0.63;0.63;;;;;;;;;;6244445;22;20538;-47
2024/03/24 08:30:08;;;;;;;0.60;0.60;;;;;;;;;;6244051;22;20274;-46
2024/03/24 08:32:35;;;;;;;0.60;0.60;;;;;;;;;;6243876;22;20256;-49
2024/03/24 08:35:02;;;;;;;0.60;0.60;;;;;;;;;;6244508;22;20252;-51
2024/03/24 08:37:29;;;;;;;0.73;0.73;;;;;;;;;;6244354;22;20220;-46
2024/03/24 08:39:56;;;;;;;0.55;0.55;;;;;;;;;;6244141;22;20197;-49
2024/03/24 08:42:26;;;;;;;0.80;0.80;;;;;;;;;;6244237;22;20184;-46
2024/03/24 08:44:52;;;;;;;0.63;0.63;;;;;;;;;;6244491;22;20177;-48
2024/03/24 08:47:20;;;;;;;0.75;0.75;;;;;;;;;;6244830;22;20177;-46
2024/03/24 08:49:46;;;;;;;0.85;0.70;;;;;;;;;;6244228;22;20252;-48
2024/03/24 08:52:13;;;;;;;0.50;0.50;;;;;;;;;;6243646;22;20177;-47
2024/03/24 08:54:40;;;;;;;0.52;0.52;;;;;;;;;;6243660;22;20184;-48
2024/03/24 08:57:07;;;;;;;0.68;0.68;;;;;;;;;;6244400;22;20184;-47
2024/03/24 08:59:35;;;;;;;0.60;0.60;;;;;;;;;;6244547;22;20248;-49
2024/03/24 09:02:03;;;;;;;0.70;0.70;;;;;;;;;;6243494;22;20203;-49
2024/03/24 09:04:29;;;;;;;0.70;0.70;;;;;;;;;;6244529;22;20234;-47
2024/03/24 09:06:57;;;;;;;0.50;0.50;;;;;;;;;;6244177;22;20232;-49
2024/03/24 09:09:23;;;;;;;0.73;0.73;;;;;;;;;;6244787;22;20204;-46
2024/03/24 09:11:51;;;;;;;0.70;0.70;;;;;;;;;;6243406;22;20172;-50
2024/03/24 09:14:17;;;;;;;0.80;0.80;;;;;;;;;;6244835;22;20182;-47
2024/03/24 09:16:46;;;;;;;0.80;0.80;;;;;;;;;;6243942;22;20256;-48
2024/03/24 09:19:15;;;;;;;1.00;1.00;;;;;;;;;;6244443;22;20505;-46
2024/03/24 09:21:42;;;;;;;1.05;1.00;;;;;;;;;;6244909;23;20703;-48
2024/03/24 09:24:08;;;;;;;0.93;0.93;;;;;;;;;;6244231;22;20179;-49
2024/03/24 09:26:36;;;;;;;1.48;1.38;;;;;;;;;;6244319;22;20172;-48
2024/03/24 09:29:02;;;;;;;0.95;0.95;;;;;;;;;;6244237;22;20201;-47
2024/03/24 09:31:30;;;;;;;0.90;0.90;;;;;;;;;;6244322;22;20230;-46
2024/03/24 09:33:58;;;;;;;1.23;1.10;;;;;;;;;;6244278;22;20634;-47
2024/03/24 09:36:25;;;;;;;3.05;2.85;;;;;;;;;;6243585;22;20705;-48
2024/03/24 09:38:52;;;;;;;2.60;2.40;;;;;;;;;;6243912;22;20204;-47
2024/03/24 09:41:20;;;;;;;1.60;1.50;;;;;;;;;;6243803;22;20658;-51
2024/03/24 09:43:46;;;;;;;1.30;1.10;;;;;;;;;;6244134;22;20690;-47
2024/03/24 09:46:14;;;;;;;1.08;1.08;;;;;;;;;;6243817;22;20614;-48
2024/03/24 09:48:41;;;;;;;1.30;1.20;;;;;;;;;;6244205;22;20201;-46
2024/03/24 09:51:12;;;;;;;1.08;1.08;;;;;;;;;;6244246;22;20173;-46
2024/03/24 09:53:39;;;;;;;1.15;1.10;;;;;;;;;;6244022;22;20188;-46
2024/03/24 09:56:08;;;;;;;0.80;0.80;;;;;;;;;;6243722;22;20649;-49
2024/03/24 09:58:37;;;;;;;0.70;0.70;;;;;;;;;;6243928;23;20252;-48
2024/03/24 10:01:05;;;;;;;0.95;0.95;;;;;;;;;;6242991;23;20200;-47
2024/03/24 10:03:31;;;;;;;1.17;1.08;;;;;;;;;;6243790;22;20173;-50
2024/03/24 10:06:01;;;;;;;0.73;0.73;;;;;;;;;;6243579;22;20631;-48
2024/03/24 10:08:35;;;;;;;0.80;0.80;;;;;;;;;;6244192;22;20196;-46
2024/03/24 10:11:27;;;;;;;0.70;0.70;;;;;;;;;;6244320;23;20165;-47
2024/03/24 10:13:54;;;;;;;0.60;0.60;;;;;;;;;;6244182;23;20158;-48
2024/03/24 10:16:22;;;;;;;0.80;0.80;;;;;;;;;;6245386;22;20242;-47
2024/03/24 10:18:48;;;;;;;0.70;0.70;;;;;;;;;;6245522;22;20740;-47
2024/03/24 10:21:17;;;;;;;0.80;0.80;;;;;;;;;;6245816;22;20200;-48
2024/03/24 10:23:45;;;;;;;0.70;0.70;;;;;;;;;;6243883;22;20173;-48
2024/03/24 10:26:19;;;;;;;0.90;0.90;;;;;;;;;;6245742;22;20177;-47
2024/03/24 10:28:46;;;;;;;0.50;0.50;;;;;;;;;;6246065;23;20223;-49
2024/03/24 10:31:14;;;;;;;0.70;0.70;;;;;;;;;;6245554;22;20169;-48
2024/03/24 10:33:41;;;;;;;0.60;0.60;;;;;;;;;;6245024;22;20177;-47
2024/03/24 10:36:10;;;;;;;0.60;0.60;;;;;;;;;;6246136;22;20216;-48
2024/03/24 10:38:37;;;;;;;0.85;0.85;;;;;;;;;;6245256;22;20193;-46
2024/03/24 10:41:09;;;;;;;0.80;0.80;;;;;;;;;;6245245;22;20192;-47
2024/03/24 10:43:35;;;;;;;0.85;0.85;;;;;;;;;;6246021;23;20163;-48
2024/03/24 10:46:03;;;;;;;0.70;0.70;;;;;;;;;;6245225;22;20255;-47
2024/03/24 10:48:31;;;;;;;1.52;0.88;;;;;;;;;;6245326;22;20189;-46
2024/03/24 10:51:02;;;;;;;1.50;1.00;;;;;;;;;;6245406;22;20304;-49
2024/03/24 10:53:29;;;;;;;0.93;0.93;;;;;;;;;;6245730;23;20634;-48
2024/03/24 10:55:58;;;;;;;0.68;0.68;;;;;;;;;;6245449;22;20201;-47
2024/03/24 10:58:27;;;;;;;1.48;1.20;;;;;;;;;;6246262;23;20272;-46
2024/03/24 11:00:55;;;;;;;1.70;1.25;;;;;;;;;;6246202;22;20634;-47
2024/03/24 11:03:23;;;;;;;0.98;0.98;;;;;;;;;;6246120;22;20187;-47
2024/03/24 11:05:52;;;;;;;3.25;1.25;;;;;;;;;;6246363;22;20172;-46
2024/03/24 11:08:20;;;;;;;1.15;1.15;;;;;;;;;;6245843;23;20710;-46
2024/03/24 11:10:50;;;;;;;1.73;1.20;;;;;;;;;;6246192;22;20173;-48
2024/03/24 11:13:20;;;;;;;1.10;1.10;;;;;;;;;;6245871;23;20176;-47
2024/03/24 11:15:52;;;;;;;1.40;1.30;;;;;;;;;;6246388;23;20161;-46
2024/03/24 11:18:21;;;;;;;1.35;1.25;;;;;;;;;;6245945;23;20196;-46
2024/03/24 11:20:51;;;;;;;1.50;1.25;;;;;;;;;;6246140;22;20692;-47
2024/03/24 11:23:20;;;;;;;1.25;1.10;;;;;;;;;;6245106;22;20264;-48
2024/03/24 11:25:51;;;;;;;1.52;1.17;;;;;;;;;;6245491;22;20276;-46
2024/03/24 11:28:40;;;;;;;1.33;1.10;;;;;;;;;;6245790;22;20193;-46
2024/03/24 11:31:16;;;;;;;1.30;1.20;;;;;;;;;;6245552;23;20177;-46
2024/03/24 11:33:45;;;;;;;1.65;1.23;;;;;;;;;;6245198;22;20180;-48
2024/03/24 11:36:18;;;;;;;1.48;1.30;;;;;;;;;;6245871;22;20682;-47
2024/03/24 11:38:46;;;;;;;0.90;0.90;;;;;;;;;;6245123;23;20197;-48
2024/03/24 11:41:16;;;;;;;1.77;1.67;;;;;;;;;;6245047;22;20177;-47
2024/03/24 11:43:43;;;;;;;1.90;1.80;;;;;;;;;;6245305;23;20626;-48
2024/03/24 11:46:11;;;;;;;1.50;1.40;;;;;;;;;;6244504;22;20479;-49
2024/03/24 11:48:39;;;;;;;3.28;1.90;;;;;;;;;;6245071;23;20199;-47
2024/03/24 11:51:07;;;;;;;2.67;1.33;;;;;;;;;;6244647;22;20177;-47
2024/03/24 11:53:35;;;;;;;1.63;1.10;;;;;;;;;;6244789;22;20199;-47
2024/03/24 11:56:04;;;;;;;1.50;1.40;;;;;;;;;;6244510;22;20173;-47
2024/03/24 11:58:31;;;;;;;1.35;1.25;;;;;;;;;;6245092;22;20196;-50
2024/03/24 12:01:00;;;;;;;3.67;1.38;;;;;;;;;;6245211;22;20200;-46
2024/03/24 12:03:27;;;;;;;1.10;1.00;;;;;;;;;;6244866;22;20201;-51
2024/03/24 12:05:57;;;;;;;1.10;1.10;;;;;;;;;;6245024;22;20595;-51
2024/03/24 12:08:24;;;;;;;1.70;1.60;;;;;;;;;;6244171;22;20201;-51
2024/03/24 12:10:52;;;;;;;1.20;1.10;;;;;;;;;;6244892;22;20178;-48
2024/03/24 12:13:19;;;;;;;3.72;1.85;;;;;;;;;;6244335;22;20231;-47
2024/03/24 12:15:47;;;;;;;1.40;1.30;;;;;;;;;;6244148;22;20180;-49
2024/03/24 12:18:13;;;;;;;2.13;1.63;;;;;;;;;;6244323;22;20285;-48
2024/03/24 12:20:41;;;;;;;1.63;1.50;;;;;;;;;;6244064;22;20515;-48
2024/03/24 12:23:09;;;;;;;1.48;1.38;;;;;;;;;;6244181;23;20228;-51
2024/03/24 12:25:37;;;;;;;1.35;1.25;;;;;;;;;;6244021;22;20179;-52
2024/03/24 12:28:04;;;;;;;1.60;1.50;;;;;;;;;;6244173;22;20285;-48
2024/03/24 12:30:31;;;;;;;1.67;1.50;;;;;;;;;;6243791;22;20177;-47
2024/03/24 12:33:02;;;;;;;2.35;1.45;;;;;;;;;;6243822;22;20577;-47
2024/03/24 12:35:29;;;;;;;1.05;1.05;;;;;;;;;;6244173;22;20196;-47
2024/03/24 12:37:55;;;;;;;2.58;1.55;;;;;;;;;;6243717;22;20193;-49
2024/03/24 12:40:24;;;;;;;2.22;1.52;;;;;;;;;;6243775;22;20173;-50
2024/03/24 12:42:51;;;;;;;1.67;1.58;;;;;;;;;;6244057;22;20193;-51
2024/03/24 12:45:19;;;;;;;4.53;2.35;;;;;;;;;;6243631;22;20755;-47
2024/03/24 12:47:46;;;;;;;1.80;1.60;;;;;;;;;;6243769;22;20193;-48
2024/03/24 12:50:26;;;;;;;2.33;1.70;;;;;;;;;;6244087;23;20177;-49
2024/03/24 12:53:02;;;;;;;2.20;1.42;;;;;;;;;;6243592;23;20240;-48
2024/03/24 12:55:36;;;;;;;3.63;2.22;;;;;;;;;;6244614;23;20161;-49
2024/03/24 12:58:06;;;;;;;1.40;1.30;;;;;;;;;;6244497;23;20522;-48
2024/03/24 13:00:35;;;;;;;2.35;1.75;;;;;;;;;;6244118;23;20165;-51
2024/03/24 13:03:02;;;;;;;3.92;1.80;;;;;;;;;;6243644;22;20197;-48
2024/03/24 13:05:30;;;;;;;1.70;1.60;;;;;;;;;;6243802;22;20177;-51
2024/03/24 13:07:56;;;;;;;2.35;1.17;;;;;;;;;;6243890;22;20300;-49
2024/03/24 13:10:25;;;;;;;3.13;1.83;;;;;;;;;;6243524;22;20177;-49
2024/03/24 13:12:54;;;;;;;1.70;1.60;;;;;;;;;;6243343;22;20175;-51
2024/03/24 13:15:21;;;;;;;1.90;1.73;;;;;;;;;;6244069;22;20689;-47
2024/03/24 13:17:51;;;;;;;1.50;1.40;;;;;;;;;;6243650;22;20197;-47
2024/03/24 13:20:20;;;;;;;2.13;1.75;;;;;;;;;;6244425;22;20173;-50
2024/03/24 13:22:49;;;;;;;2.53;1.48;;;;;;;;;;6243822;22;20200;-47
2024/03/24 13:25:17;;;;;;;2.13;1.55;;;;;;;;;;6243451;22;20177;-48
2024/03/24 13:27:47;;;;;;;1.67;1.45;;;;;;;;;;6243571;22;20540;-50
2024/03/24 13:30:16;;;;;;;1.20;1.10;;;;;;;;;;6244046;22;20177;-50
2024/03/24 13:32:43;;;;;;;1.13;1.00;;;;;;;;;;6243173;22;20173;-47
2024/03/24 13:35:12;;;;;;;1.35;1.25;;;;;;;;;;6243677;22;20718;-47
2024/03/24 13:37:41;;;;;;;1.33;1.23;;;;;;;;;;6244062;23;20192;-49
2024/03/24 13:40:17;;;;;;;1.20;1.20;;;;;;;;;;6243640;22;20184;-49
2024/03/24 13:42:56;;;;;;;0.88;0.88;;;;;;;;;;6243239;23;20184;-48
2024/03/24 13:45:30;;;;;;;1.02;1.02;;;;;;;;;;6244102;23;20180;-48
2024/03/24 13:48:07;;;;;;;0.90;0.90;;;;;;;;;;6243880;23;20192;-48
2024/03/24 13:50:36;;;;;;;1.35;1.15;;;;;;;;;;6246202;23;20596;-47
2024/03/24 13:53:02;;;;;;;1.30;1.20;;;;;;;;;;6245650;23;20168;-48
2024/03/24 13:55:30;;;;;;;2.05;1.10;;;;;;;;;;6245719;22;20516;-48
2024/03/24 13:57:56;;;;;;;1.27;1.20;;;;;;;;;;6245884;22;20199;-51
2024/03/24 14:00:25;;;;;;;2.75;1.65;;;;;;;;;;6245535;22;20177;-49
2024/03/24 14:02:52;;;;;;;3.08;1.30;;;;;;;;;;6245695;22;20197;-50
2024/03/24 14:05:19;;;;;;;1.58;1.25;;;;;;;;;;6245351;22;20173;-52
2024/03/24 14:07:46;;;;;;;1.48;1.30;;;;;;;;;;6244964;22;20700;-49
2024/03/24 14:10:15;;;;;;;1.10;1.00;;;;;;;;;;6245264;22;20196;-49
2024/03/24 14:13:03;;;;;;;1.38;1.27;;;;;;;;;;6244685;23;20177;-48
2024/03/24 14:15:43;;;;;;;2.85;1.27;;;;;;;;;;6244319;23;20200;-49
2024/03/24 14:18:22;;;;;;;0.82;0.82;;;;;;;;;;6244007;23;20203;-48
2024/03/24 14:20:55;;;;;;;1.48;1.25;;;;;;;;;;6245657;23;20161;-49
2024/03/24 14:23:30;;;;;;;1.13;0.95;;;;;;;;;;6245291;22;20276;-47
2024/03/24 14:26:01;;;;;;;0.80;0.80;;;;;;;;;;6246191;23;20163;-51
2024/03/24 14:28:28;;;;;;;0.90;0.90;;;;;;;;;;6245961;23;20193;-48
2024/03/24 14:30:56;;;;;;;0.80;0.80;;;;;;;;;;6245337;22;20324;-48
2024/03/24 14:33:25;;;;;;;0.70;0.70;;;;;;;;;;6245232;22;20173;-49
2024/03/24 14:36:01;;;;;;;1.15;1.08;;;;;;;;;;6245459;23;20180;-48
2024/03/24 14:38:47;;;;;;;1.85;1.15;;;;;;;;;;6245632;23;20657;-48
2024/03/24 14:41:22;;;;;;;0.85;0.80;;;;;;;;;;6245294;23;20161;-47
2024/03/24 14:44:15;;;;;;;0.75;0.75;;;;;;;;;;6245282;23;20180;-48
2024/03/24 14:47:01;;;;;;;0.80;0.80;;;;;;;;;;6245787;23;20157;-49
2024/03/24 14:49:27;;;;;;;0.80;0.80;;;;;;;;;;6245516;23;20179;-48